createdAt,value
2023-03-28T00:01:03.204Z,-0.72
2023-03-28T00:03:35.715Z,-0.75
2023-03-28T00:06:05.921Z,-0.76
2023-03-28T00:08:33.278Z,-0.77
2023-03-28T00:11:06.531Z,-0.79
2023-03-28T00:13:34.200Z,-0.81
2023-03-28T00:16:08.355Z,-0.86
2023-03-28T00:18:39.217Z,-0.91
2023-03-28T00:21:19.736Z,-0.96
2023-03-28T00:23:46.937Z,-0.98
2023-03-28T00:26:13.824Z,-1.03
2023-03-28T00:28:41.054Z,-1.07
2023-03-28T00:31:08.738Z,-1.08
2023-03-28T00:33:35.939Z,-1.11
2023-03-28T00:36:03.192Z,-1.12
2023-03-28T00:38:31.564Z,-1.18
2023-03-28T00:40:58.527Z,-1.21
2023-03-28T00:43:43.661Z,-1.23
2023-03-28T00:46:18.580Z,-1.27
2023-03-28T00:48:52.672Z,-1.31
2023-03-28T00:51:25.080Z,-1.33
2023-03-28T00:53:57.974Z,-1.36
2023-03-28T00:56:27.072Z,-1.37
2023-03-28T00:58:54.341Z,-1.40
2023-03-28T01:01:21.369Z,-1.44
2023-03-28T01:04:02.428Z,-1.48
2023-03-28T01:06:35.036Z,-1.51
2023-03-28T01:09:06.846Z,-1.50
2023-03-28T01:11:37.543Z,-1.50
2023-03-28T01:14:04.865Z,-1.52
2023-03-28T01:16:31.981Z,-1.51
2023-03-28T01:19:03.764Z,-1.53
2023-03-28T01:21:48.962Z,-1.55
2023-03-28T01:24:46.262Z,-1.55
2023-03-28T01:27:54.551Z,-1.58
2023-03-28T01:30:34.222Z,-1.61
2023-03-28T01:33:13.048Z,-1.61
2023-03-28T01:36:33.855Z,-1.63
2023-03-28T01:39:09.448Z,-1.71
2023-03-28T01:41:55.454Z,-1.68
2023-03-28T01:44:28.478Z,-1.70
2023-03-28T01:47:07.964Z,-1.69
2023-03-28T01:49:47.191Z,-1.73
2023-03-28T01:52:20.786Z,-1.72
2023-03-28T01:55:09.451Z,-1.75
2023-03-28T01:57:56.724Z,-1.75
2023-03-28T02:00:38.664Z,-1.78
2023-03-28T02:03:13.246Z,-1.77
2023-03-28T02:05:43.074Z,-1.81
2023-03-28T02:08:12.157Z,-1.83
2023-03-28T02:10:41.974Z,-1.89
2023-03-28T02:13:16.460Z,-1.88
2023-03-28T02:15:46.564Z,-1.91
2023-03-28T02:18:29.731Z,-1.94
2023-03-28T02:21:05.077Z,-2.00
2023-03-28T02:23:39.299Z,-2.00
2023-03-28T02:26:07.113Z,-2.00
2023-03-28T02:28:37.153Z,-2.01
2023-03-28T02:31:05.566Z,-2.04
2023-03-28T02:33:38.122Z,-2.11
2023-03-28T02:36:10.901Z,-2.15
2023-03-28T02:38:48.351Z,-2.20
2023-03-28T02:41:39.367Z,-2.23
2023-03-28T02:44:35.769Z,-2.28
2023-03-28T02:47:25.692Z,-2.35
2023-03-28T02:50:27.902Z,-2.40
2023-03-28T02:53:00.924Z,-2.44
2023-03-28T02:55:41.705Z,-2.46
2023-03-28T02:58:22.953Z,-2.51
2023-03-28T03:00:51.312Z,-2.52
2023-03-28T03:03:18.391Z,-2.54
2023-03-28T03:05:45.607Z,-2.53
2023-03-28T03:08:12.653Z,-2.54
2023-03-28T03:10:39.835Z,-2.54
2023-03-28T03:13:06.817Z,-2.57
2023-03-28T03:15:35.798Z,-2.60
2023-03-28T03:18:04.479Z,-2.58
2023-03-28T03:20:33.779Z,-2.62
2023-03-28T03:23:01.697Z,-2.61
2023-03-28T03:25:31.422Z,-2.64
2023-03-28T03:27:58.454Z,-2.65
2023-03-28T03:30:25.686Z,-2.68
2023-03-28T03:32:52.863Z,-2.76
2023-03-28T03:35:20.462Z,-2.78
2023-03-28T03:37:47.729Z,-2.83
2023-03-28T03:40:14.953Z,-2.87
2023-03-28T03:42:41.797Z,-2.89
2023-03-28T03:45:09.986Z,-2.97
2023-03-28T03:47:36.960Z,-3.00
2023-03-28T03:50:04.591Z,-3.05
2023-03-28T03:52:31.656Z,-3.09
2023-03-28T03:54:58.767Z,-3.11
2023-03-28T03:57:25.742Z,-3.16
2023-03-28T03:59:52.921Z,-3.22
2023-03-28T04:02:20.354Z,-3.28
2023-03-28T04:04:47.869Z,-3.31
2023-03-28T04:07:14.913Z,-3.35
2023-03-28T04:09:42.065Z,-3.38
2023-03-28T04:12:10.565Z,-3.39
2023-03-28T04:14:37.693Z,-3.44
2023-03-28T04:17:05.098Z,-3.45
2023-03-28T04:19:32.397Z,-3.47
2023-03-28T04:21:59.348Z,-3.50
2023-03-28T04:24:26.770Z,-3.52
2023-03-28T04:26:56.494Z,-3.50
2023-03-28T04:29:30.651Z,-3.48
2023-03-28T04:31:58.878Z,-3.50
2023-03-28T04:34:30.308Z,-3.51
2023-03-28T04:37:02.053Z,-3.47
2023-03-28T04:39:30.971Z,-3.45
2023-03-28T04:42:02.068Z,-3.44
2023-03-28T04:44:29.738Z,-3.39
2023-03-28T04:46:58.342Z,-3.32
2023-03-28T04:49:25.859Z,-3.29
2023-03-28T04:51:52.896Z,-3.21
2023-03-28T04:54:20.386Z,-3.11
2023-03-28T04:56:50.381Z,-3.02
2023-03-28T04:59:18.359Z,-2.87
2023-03-28T05:01:49.465Z,-2.65
2023-03-28T05:04:17.888Z,-2.32
2023-03-28T05:06:46.486Z,-1.79
2023-03-28T05:09:14.447Z,-1.28
2023-03-28T05:11:41.758Z,-0.78
2023-03-28T05:14:09.253Z,-0.55
2023-03-28T05:16:36.316Z,-0.43
2023-03-28T05:19:04.041Z,-0.51
2023-03-28T05:21:31.151Z,-0.58
2023-03-28T05:23:58.352Z,-0.55
2023-03-28T05:26:25.794Z,-0.45
2023-03-28T05:28:53.208Z,-0.09
2023-03-28T05:31:20.450Z,0.37
2023-03-28T05:33:47.746Z,0.87
2023-03-28T05:36:14.915Z,1.65
2023-03-28T05:38:42.312Z,2.48
2023-03-28T05:41:09.210Z,3.15
2023-03-28T05:43:36.362Z,3.89
2023-03-28T05:46:03.362Z,4.53
2023-03-28T05:48:31.763Z,4.93
2023-03-28T05:50:58.810Z,5.23
2023-03-28T05:53:26.258Z,5.70
2023-03-28T05:55:53.082Z,6.00
2023-03-28T05:58:20.370Z,5.81
2023-03-28T06:00:47.298Z,5.74
2023-03-28T06:03:16.778Z,5.84
2023-03-28T06:05:45.109Z,5.60
2023-03-28T06:08:12.379Z,5.14
2023-03-28T06:10:39.267Z,4.47
2023-03-28T06:13:06.454Z,4.14
2023-03-28T06:15:33.367Z,4.20
2023-03-28T06:18:00.960Z,4.16
2023-03-28T06:20:27.814Z,4.14
2023-03-28T06:22:55.075Z,4.10
2023-03-28T06:25:21.971Z,4.11
2023-03-28T06:27:49.590Z,4.29
2023-03-28T06:30:16.529Z,4.47
2023-03-28T06:32:43.875Z,4.57
2023-03-28T06:35:10.874Z,4.69
2023-03-28T06:37:38.083Z,4.71
2023-03-28T06:40:05.582Z,4.96
2023-03-28T06:42:32.800Z,5.31
2023-03-28T06:44:59.644Z,5.83
2023-03-28T06:47:26.984Z,6.54
2023-03-28T06:49:53.817Z,7.11
2023-03-28T06:52:23.205Z,7.66
2023-03-28T06:54:50.152Z,8.12
2023-03-28T06:57:17.465Z,8.29
2023-03-28T06:59:44.455Z,8.48
2023-03-28T07:02:11.901Z,9.15
2023-03-28T07:04:38.897Z,9.40
2023-03-28T07:07:07.978Z,9.48
2023-03-28T07:09:35.782Z,9.50
2023-03-28T07:12:03.776Z,9.76
2023-03-28T07:14:30.644Z,10.07
2023-03-28T07:16:57.939Z,10.07
2023-03-28T07:19:25.049Z,10.14
2023-03-28T07:21:53.299Z,10.32
2023-03-28T07:24:20.501Z,10.51
2023-03-28T07:26:47.714Z,10.85
2023-03-28T07:29:14.641Z,11.23
2023-03-28T07:31:42.199Z,11.57
2023-03-28T07:34:09.319Z,12.27
2023-03-28T07:36:38.492Z,12.44
2023-03-28T07:39:05.854Z,12.13
2023-03-28T07:41:33.028Z,12.05
2023-03-28T07:44:00.132Z,12.23
2023-03-28T07:46:28.034Z,12.45
2023-03-28T07:48:56.281Z,12.34
2023-03-28T07:51:23.441Z,12.55
2023-03-28T07:53:50.352Z,12.59
2023-03-28T07:56:17.572Z,12.18
2023-03-28T07:58:44.384Z,11.82
2023-03-28T08:01:12.935Z,11.37
2023-03-28T08:03:41.459Z,10.33
2023-03-28T08:06:24.191Z,9.34
2023-03-28T08:08:56.094Z,8.71
2023-03-28T08:11:23.312Z,8.24
2023-03-28T08:13:50.268Z,8.25
2023-03-28T08:16:17.477Z,8.38
2023-03-28T08:18:44.483Z,7.97
2023-03-28T08:21:11.622Z,7.68
2023-03-28T08:23:38.535Z,7.99
2023-03-28T08:26:07.404Z,7.42
2023-03-28T08:28:35.463Z,6.89
2023-03-28T08:31:09.351Z,6.35
2023-03-28T08:33:36.473Z,5.63
2023-03-28T08:36:03.892Z,4.97
2023-03-28T08:38:30.863Z,4.41
2023-03-28T08:41:16.096Z,4.03
2023-03-28T08:44:01.878Z,3.88
2023-03-28T08:46:31.045Z,3.65
2023-03-28T08:49:04.441Z,3.34
2023-03-28T08:51:37.092Z,3.19
2023-03-28T08:54:20.628Z,3.01
2023-03-28T08:56:57.324Z,2.66
2023-03-28T08:59:53.362Z,2.39
2023-03-28T09:02:27.036Z,2.43
2023-03-28T09:05:08.215Z,2.36
2023-03-28T09:08:09.195Z,2.41
2023-03-28T09:10:44.079Z,2.44
2023-03-28T09:13:39.405Z,2.36
2023-03-28T09:16:09.466Z,2.37
2023-03-28T09:19:11.001Z,2.34
2023-03-28T09:22:08.835Z,2.41
2023-03-28T09:25:01.166Z,2.83
2023-03-28T09:27:39.938Z,3.48
2023-03-28T09:30:18.159Z,3.94
2023-03-28T09:32:45.552Z,4.20
2023-03-28T09:35:21.678Z,4.21
2023-03-28T09:38:02.978Z,3.75
2023-03-28T09:40:33.002Z,3.38
2023-03-28T09:43:21.047Z,3.15
2023-03-28T09:46:08.602Z,3.04
2023-03-28T09:48:37.656Z,3.06
2023-03-28T09:51:07.231Z,2.95
2023-03-28T09:53:35.474Z,2.77
2023-03-28T09:56:08.126Z,2.67
2023-03-28T09:59:02.507Z,2.85
2023-03-28T10:01:38.984Z,3.15
2023-03-28T10:04:28.195Z,3.88
2023-03-28T10:07:22.389Z,4.60
2023-03-28T10:09:54.269Z,4.88
2023-03-28T10:12:39.112Z,5.09
2023-03-28T10:15:08.944Z,5.40
2023-03-28T10:17:38.148Z,6.20
2023-03-28T10:20:15.032Z,7.35
2023-03-28T10:22:45.845Z,8.33
2023-03-28T10:25:20.718Z,8.80
2023-03-28T10:27:51.784Z,9.47
2023-03-28T10:30:29.615Z,10.34
2023-03-28T10:33:25.019Z,10.46
2023-03-28T10:36:02.508Z,9.54
2023-03-28T10:38:47.764Z,8.93
2023-03-28T10:41:29.164Z,8.40
2023-03-28T10:43:57.139Z,8.54
2023-03-28T10:46:36.338Z,9.47
2023-03-28T10:49:07.412Z,10.91
2023-03-28T10:51:38.170Z,11.64
2023-03-28T10:54:12.921Z,11.67
2023-03-28T10:56:50.599Z,11.29
2023-03-28T10:59:41.386Z,10.01
2023-03-28T11:02:55.976Z,9.49
2023-03-28T11:06:01.791Z,10.26
2023-03-28T11:09:07.595Z,11.08
2023-03-28T11:11:44.263Z,11.03
2023-03-28T11:14:33.123Z,9.91
2023-03-28T11:17:22.391Z,8.19
2023-03-28T11:20:17.849Z,6.45
2023-03-28T11:22:52.508Z,4.93
2023-03-28T11:25:57.078Z,3.36
2023-03-28T11:28:43.133Z,2.42
2023-03-28T11:31:20.336Z,1.77
2023-03-28T11:33:53.016Z,1.30
2023-03-28T11:36:29.579Z,1.00
2023-03-28T11:39:20.389Z,0.87
2023-03-28T11:41:50.260Z,0.94
2023-03-28T11:44:33.158Z,1.31
2023-03-28T11:47:08.676Z,1.81
2023-03-28T11:49:47.110Z,2.46
2023-03-28T11:52:21.179Z,3.45
2023-03-28T11:54:48.289Z,4.37
2023-03-28T11:57:44.337Z,5.37
2023-03-28T12:00:47.385Z,6.76
2023-03-28T12:03:42.734Z,7.91
2023-03-28T12:06:20.678Z,8.41
2023-03-28T12:09:00.354Z,8.86
2023-03-28T12:11:36.658Z,8.87
2023-03-28T12:14:35.126Z,8.84
2023-03-28T12:17:14.009Z,9.12
2023-03-28T12:19:41.349Z,9.45
2023-03-28T12:22:27.332Z,9.79
2023-03-28T12:25:39.451Z,9.14
2023-03-28T12:28:23.670Z,7.82
2023-03-28T12:30:59.505Z,5.91
2023-03-28T12:33:30.549Z,4.41
2023-03-28T12:36:26.476Z,3.24
2023-03-28T12:39:22.726Z,2.44
2023-03-28T12:41:51.925Z,1.93
2023-03-28T12:44:29.261Z,1.62
2023-03-28T12:47:09.311Z,1.45
2023-03-28T12:49:51.506Z,1.43
2023-03-28T12:52:26.842Z,1.57
2023-03-28T12:54:57.646Z,1.77
2023-03-28T12:57:41.100Z,2.09
2023-03-28T13:00:26.484Z,2.82
2023-03-28T13:03:05.650Z,3.69
2023-03-28T13:05:47.387Z,4.53
2023-03-28T13:08:48.370Z,4.89
2023-03-28T13:11:30.154Z,5.13
2023-03-28T13:14:36.451Z,5.36
2023-03-28T13:17:26.253Z,5.41
2023-03-28T13:19:55.954Z,5.40
2023-03-28T13:22:42.557Z,5.24
2023-03-28T13:25:33.850Z,4.79
2023-03-28T13:28:24.473Z,4.31
2023-03-28T13:31:09.577Z,4.37
2023-03-28T13:33:38.818Z,4.34
2023-03-28T13:36:06.126Z,4.12
2023-03-28T13:39:04.183Z,3.94
2023-03-28T13:41:34.680Z,3.17
2023-03-28T13:44:10.580Z,2.36
2023-03-28T13:46:44.544Z,1.80
2023-03-28T13:49:30.166Z,1.21
2023-03-28T13:52:20.227Z,0.95
2023-03-28T13:54:54.211Z,0.94
2023-03-28T13:57:27.056Z,0.91
2023-03-28T13:59:58.534Z,0.91
2023-03-28T14:02:28.859Z,0.93
2023-03-28T14:05:03.555Z,0.78
2023-03-28T14:07:31.156Z,0.82
2023-03-28T14:09:58.415Z,1.00
2023-03-28T14:12:29.536Z,1.22
2023-03-28T14:14:59.067Z,1.53
2023-03-28T14:17:33.812Z,1.78
2023-03-28T14:20:05.522Z,2.07
2023-03-28T14:22:45.753Z,2.36
2023-03-28T14:25:17.551Z,2.52
2023-03-28T14:27:52.644Z,2.49
2023-03-28T14:30:31.061Z,2.62
2023-03-28T14:33:16.376Z,2.61
2023-03-28T14:35:45.686Z,2.39
2023-03-28T14:38:14.934Z,2.34
2023-03-28T14:40:45.746Z,2.31
2023-03-28T14:43:13.846Z,2.31
2023-03-28T14:45:44.789Z,2.27
2023-03-28T14:48:19.355Z,2.09
2023-03-28T14:50:48.844Z,2.06
2023-03-28T14:53:28.184Z,1.99
2023-03-28T14:56:02.258Z,1.93
2023-03-28T14:58:31.219Z,1.85
2023-03-28T15:01:01.828Z,1.77
2023-03-28T15:03:42.082Z,1.73
2023-03-28T15:06:16.588Z,1.67
2023-03-28T15:08:45.908Z,1.69
2023-03-28T15:11:22.415Z,1.65
2023-03-28T15:14:13.477Z,1.70
2023-03-28T15:16:44.269Z,1.78
2023-03-28T15:19:41.138Z,1.87
2023-03-28T15:22:12.942Z,1.94
2023-03-28T15:24:41.468Z,2.02
2023-03-28T15:27:24.020Z,2.02
2023-03-28T15:29:51.866Z,2.04
2023-03-28T15:32:20.728Z,1.95
2023-03-28T15:34:55.553Z,1.85
2023-03-28T15:37:25.417Z,1.64
2023-03-28T15:39:53.171Z,1.63
2023-03-28T15:42:20.885Z,1.74
2023-03-28T15:44:59.598Z,1.91
2023-03-28T15:47:33.804Z,2.10
2023-03-28T15:50:16.585Z,2.31
2023-03-28T15:52:43.989Z,2.55
2023-03-28T15:55:21.107Z,2.69
2023-03-28T15:57:48.469Z,2.72
2023-03-28T16:00:38.327Z,2.63
2023-03-28T16:03:20.616Z,2.55
2023-03-28T16:05:51.684Z,2.41
2023-03-28T16:08:31.071Z,2.28
2023-03-28T16:10:58.306Z,2.11
2023-03-28T16:13:25.766Z,2.00
2023-03-28T16:15:53.070Z,1.86
2023-03-28T16:18:21.161Z,1.70
2023-03-28T16:20:48.135Z,1.57
2023-03-28T16:23:15.458Z,1.40
2023-03-28T16:25:43.225Z,1.22
2023-03-28T16:28:18.411Z,1.09
2023-03-28T16:30:46.283Z,1.00
2023-03-28T16:33:13.873Z,0.88
2023-03-28T16:35:41.213Z,0.71
2023-03-28T16:38:11.851Z,0.64
2023-03-28T16:40:39.016Z,0.56
2023-03-28T16:43:06.795Z,0.48
2023-03-28T16:45:33.848Z,0.52
2023-03-28T16:48:01.765Z,0.46
2023-03-28T16:50:28.695Z,0.49
2023-03-28T16:52:55.966Z,0.48
2023-03-28T16:55:23.988Z,0.47
2023-03-28T16:57:51.326Z,0.43
2023-03-28T17:00:20.211Z,0.36
2023-03-28T17:02:48.201Z,0.31
2023-03-28T17:05:17.006Z,0.25
2023-03-28T17:07:44.797Z,0.17
2023-03-28T17:10:12.165Z,0.12
2023-03-28T17:12:39.466Z,0.07
2023-03-28T17:15:08.999Z,0.04
2023-03-28T17:17:36.586Z,-0.01
2023-03-28T17:20:03.798Z,-0.02
2023-03-28T17:22:31.253Z,-0.03
2023-03-28T17:24:59.030Z,-0.07
2023-03-28T17:27:26.606Z,-0.12
2023-03-28T17:29:53.624Z,-0.17
2023-03-28T17:32:22.193Z,-0.22
2023-03-28T17:34:49.694Z,-0.27
2023-03-28T17:37:17.059Z,-0.32
2023-03-28T17:39:43.892Z,-0.37
2023-03-28T17:42:11.113Z,-0.37
2023-03-28T17:44:38.106Z,-0.44
2023-03-28T17:47:05.501Z,-0.46
2023-03-28T17:49:32.452Z,-0.48
2023-03-28T17:52:00.220Z,-0.51
2023-03-28T17:54:27.293Z,-0.53
2023-03-28T17:56:54.563Z,-0.53
2023-03-28T17:59:22.335Z,-0.51
2023-03-28T18:01:49.998Z,-0.53
2023-03-28T18:04:18.056Z,-0.51
2023-03-28T18:06:45.654Z,-0.56
2023-03-28T18:09:12.906Z,-0.58
2023-03-28T18:11:41.503Z,-0.64
2023-03-28T18:14:08.957Z,-0.71
2023-03-28T18:16:36.844Z,-0.77
2023-03-28T18:19:06.878Z,-0.89
2023-03-28T18:21:34.180Z,-0.94
2023-03-28T18:24:01.272Z,-0.98
2023-03-28T18:26:28.947Z,-1.05
2023-03-28T18:28:56.011Z,-1.11
2023-03-28T18:31:28.150Z,-1.14
2023-03-28T18:33:57.343Z,-1.20
2023-03-28T18:36:24.897Z,-1.24
2023-03-28T18:38:53.139Z,-1.28
2023-03-28T18:41:20.587Z,-1.30
2023-03-28T18:43:47.750Z,-1.34
2023-03-28T18:46:16.123Z,-1.34
2023-03-28T18:48:44.845Z,-1.36
2023-03-28T18:51:12.489Z,-1.40
2023-03-28T18:53:39.865Z,-1.43
2023-03-28T18:56:08.513Z,-1.46
2023-03-28T18:58:37.198Z,-1.51
2023-03-28T19:01:06.372Z,-1.51
2023-03-28T19:03:42.996Z,-1.52
2023-03-28T19:06:15.387Z,-1.48
2023-03-28T19:08:43.723Z,-1.46
2023-03-28T19:11:13.897Z,-1.46
2023-03-28T19:13:41.742Z,-1.48
2023-03-28T19:16:12.597Z,-1.50
2023-03-28T19:18:41.258Z,-1.47
2023-03-28T19:21:10.175Z,-1.48
2023-03-28T19:23:37.575Z,-1.45
2023-03-28T19:26:07.267Z,-1.41
2023-03-28T19:28:35.583Z,-1.36
2023-03-28T19:31:05.975Z,-1.32
2023-03-28T19:33:33.339Z,-1.31
2023-03-28T19:36:01.250Z,-1.28
2023-03-28T19:38:30.931Z,-1.26
2023-03-28T19:41:02.708Z,-1.20
2023-03-28T19:43:31.022Z,-1.19
2023-03-28T19:46:06.927Z,-1.21
2023-03-28T19:48:35.118Z,-1.18
2023-03-28T19:51:02.802Z,-1.20
2023-03-28T19:53:29.781Z,-1.20
2023-03-28T19:55:59.827Z,-1.21
2023-03-28T19:58:28.340Z,-1.21
2023-03-28T20:00:57.105Z,-1.28
2023-03-28T20:03:24.467Z,-1.29
2023-03-28T20:05:55.564Z,-1.33
2023-03-28T20:08:24.306Z,-1.33
2023-03-28T20:10:52.762Z,-1.33
2023-03-28T20:13:19.647Z,-1.35
2023-03-28T20:15:47.440Z,-1.38
2023-03-28T20:18:20.083Z,-1.42
2023-03-28T20:20:52.530Z,-1.45
2023-03-28T20:23:22.699Z,-1.45
2023-03-28T20:25:52.324Z,-1.48
2023-03-28T20:28:21.082Z,-1.48
2023-03-28T20:30:48.381Z,-1.52
2023-03-28T20:33:15.792Z,-1.53
2023-03-28T20:35:51.768Z,-1.54
2023-03-28T20:38:19.136Z,-1.55
2023-03-28T20:40:49.416Z,-1.56
2023-03-28T20:43:20.747Z,-1.60
2023-03-28T20:45:54.144Z,-1.60
2023-03-28T20:48:36.441Z,-1.59
2023-03-28T20:51:17.113Z,-1.58
2023-03-28T20:53:47.563Z,-1.56
2023-03-28T20:56:15.888Z,-1.61
2023-03-28T20:58:44.143Z,-1.59
2023-03-28T21:01:13.424Z,-1.62
2023-03-28T21:04:06.759Z,-1.61
2023-03-28T21:06:39.660Z,-1.63
2023-03-28T21:09:12.424Z,-1.63
2023-03-28T21:11:40.317Z,-1.64
2023-03-28T21:14:09.090Z,-1.65
2023-03-28T21:16:37.988Z,-1.65
2023-03-28T21:19:05.153Z,-1.68
2023-03-28T21:21:34.096Z,-1.69
2023-03-28T21:24:02.268Z,-1.70
2023-03-28T21:26:29.799Z,-1.67
2023-03-28T21:28:56.880Z,-1.69
2023-03-28T21:31:26.791Z,-1.68
2023-03-28T21:33:57.216Z,-1.69
2023-03-28T21:36:25.604Z,-1.67
2023-03-28T21:38:52.538Z,-1.65
2023-03-28T21:41:20.024Z,-1.66
2023-03-28T21:43:48.317Z,-1.68
2023-03-28T21:46:18.541Z,-1.65
2023-03-28T21:48:48.060Z,-1.67
2023-03-28T21:51:17.251Z,-1.72
2023-03-28T21:53:44.337Z,-1.71
2023-03-28T21:56:12.847Z,-1.70
2023-03-28T21:58:40.462Z,-1.74
2023-03-28T22:01:08.139Z,-1.76
2023-03-28T22:03:38.134Z,-1.76
2023-03-28T22:06:05.793Z,-1.79
2023-03-28T22:08:33.044Z,-1.79
2023-03-28T22:11:02.688Z,-1.79
2023-03-28T22:13:30.163Z,-1.79
2023-03-28T22:16:00.792Z,-1.84
2023-03-28T22:18:30.792Z,-1.81
2023-03-28T22:21:02.424Z,-1.83
2023-03-28T22:23:30.008Z,-1.83
2023-03-28T22:25:58.634Z,-1.84
2023-03-28T22:28:25.599Z,-1.83
2023-03-28T22:30:56.728Z,-1.83
2023-03-28T22:33:25.373Z,-1.86
2023-03-28T22:35:53.264Z,-1.88
2023-03-28T22:38:20.365Z,-1.86
2023-03-28T22:40:47.802Z,-1.88
2023-03-28T22:43:15.574Z,-1.88
2023-03-28T22:45:43.060Z,-1.91
2023-03-28T22:48:16.207Z,-1.91
2023-03-28T22:50:44.523Z,-1.91
2023-03-28T22:53:12.524Z,-1.88
2023-03-28T22:55:39.775Z,-1.92
2023-03-28T22:58:07.109Z,-1.95
2023-03-28T23:00:34.765Z,-1.93
2023-03-28T23:03:01.928Z,-1.91
2023-03-28T23:05:29.712Z,-1.95
2023-03-28T23:07:56.708Z,-1.94
2023-03-28T23:10:24.421Z,-1.94
2023-03-28T23:12:52.000Z,-1.95
2023-03-28T23:15:19.444Z,-1.96
2023-03-28T23:17:46.703Z,-1.95
2023-03-28T23:20:15.063Z,-1.95
2023-03-28T23:22:44.208Z,-2.00
2023-03-28T23:25:12.868Z,-2.00
2023-03-28T23:27:40.083Z,-2.00
2023-03-28T23:30:08.978Z,-2.02
2023-03-28T23:32:36.444Z,-2.03
2023-03-28T23:35:05.746Z,-2.05
2023-03-28T23:37:34.512Z,-2.06
2023-03-28T23:40:02.341Z,-2.07
2023-03-28T23:42:29.200Z,-2.14
2023-03-28T23:44:56.409Z,-2.23
2023-03-28T23:47:23.527Z,-2.27
2023-03-28T23:49:50.757Z,-2.31
2023-03-28T23:52:17.672Z,-2.33
2023-03-28T23:54:45.542Z,-2.35
2023-03-28T23:57:12.572Z,-2.35
2023-03-28T23:59:39.917Z,-2.36
